^^
Meteo Knjazevac Station Historical Data
Daily Summary for April 16, 2021 Units:  Metric    English   Both
Daily Weekly Monthly Yearly Custom
  High: Low: Average:
Temperature: 21.9 °C 9.3 °C 15.8 °C
Dew Point: 15.7 °C 9 °C 12.9 °C
Humidity: 99% 60% 84%
Wind Speed: 19.3km/h 0km/h 3.4km/h
Wind Gust: 35.4km/h - -
Wind- - SSW
Pressure: 1012.1 hPa 1010.7 hPa -
Precipitation: 0.25 mm    
Historical Graphs
 
 
Tabular Data for April 16, 2021
Time Temperature Dew Point Pressure Wind Wind Speed Wind Gust Humidity Rainfall Rate (Hourly) solar Conditions
00:00 13.4 °C 12.6 °C 1011.1 hPa Calm   3.2 km/h 95% 0 mm 0 W/m2
00:10 13.3 °C 12.7 °C 1011.1 hPa WNW 1.6 km/h 4.8 km/h 96% 0 mm 0 W/m2
00:20 13.2 °C 12.4 °C 1011.1 hPa WSW 1.6 km/h 3.2 km/h 95% 0 mm 0 W/m2
00:30 13.2 °C 12.6 °C 1011.1 hPa West 1.6 km/h 3.2 km/h 96% 0 mm 0 W/m2
00:40 13.1 °C 12.5 °C 1011.1 hPa West 1.6 km/h 4.8 km/h 96% 0 mm 0 W/m2
00:50 12.9 °C 12.3 °C 1011.1 hPa NW 1.6 km/h 4.8 km/h 96% 0 mm 0 W/m2
01:00 12.9 °C 12.3 °C 1011.1 hPa Calm   3.2 km/h 96% 0 mm 0 W/m2
01:10 12.9 °C 12.3 °C 1010.7 hPa Calm   3.2 km/h 96% 0 mm 0 W/m2
01:20 12.9 °C 12.3 °C 1011.1 hPa Calm   3.2 km/h 96% 0 mm 0 W/m2
01:30 12.8 °C 12.2 °C 1011.1 hPa Calm   3.2 km/h 96% 0 mm 0 W/m2
01:40 12.7 °C 12.1 °C 1011.1 hPa SSW 1.6 km/h 3.2 km/h 96% 0 mm 0 W/m2
01:50 12.5 °C 11.9 °C 1011.1 hPa Calm   3.2 km/h 96% 0 mm 0 W/m2
02:00 12.4 °C 11.8 °C 1010.7 hPa Calm   1.6 km/h 96% 0 mm 0 W/m2
02:10 12.3 °C 11.5 °C 1010.7 hPa Calm   3.2 km/h 95% 0 mm 0 W/m2
02:20 12.1 °C 11.5 °C 1011.1 hPa WSW 1.6 km/h 4.8 km/h 96% 0 mm 0 W/m2
02:30 11.9 °C 11.1 °C 1011.1 hPa WNW 1.6 km/h 4.8 km/h 95% 0 mm 0 W/m2
02:40 11.9 °C 11.3 °C 1010.7 hPa Calm   3.2 km/h 96% 0 mm 0 W/m2
02:50 11.6 °C 10.8 °C 1010.7 hPa Calm   3.2 km/h 95% 0 mm 0 W/m2
03:00 11.4 °C 10.8 °C 1010.7 hPa Calm   1.6 km/h 96% 0 mm 0 W/m2
03:10 11.3 °C 10.7 °C 1010.7 hPa Calm   3.2 km/h 96% 0 mm 0 W/m2
03:20 11.1 °C 10.5 °C 1010.7 hPa WNW 3.2 km/h 4.8 km/h 96% 0 mm 0 W/m2
03:30 10.9 °C 10.3 °C 1010.7 hPa WNW 1.6 km/h 4.8 km/h 96% 0 mm 0 W/m2
03:40 10.7 °C 10.1 °C 1010.7 hPa Calm   3.2 km/h 96% 0 mm 0 W/m2
03:50 10.5 °C 9.9 °C 1011.1 hPa Calm   3.2 km/h 96% 0 mm 0 W/m2
04:00 10.4 °C 9.8 °C 1011.1 hPa Calm   3.2 km/h 96% 0 mm 0 W/m2
04:10 10.2 °C 9.6 °C 1011.1 hPa Calm   4.8 km/h 96% 0 mm 0 W/m2
04:20 10.2 °C 9.6 °C 1011.1 hPa Calm   3.2 km/h 96% 0 mm 0 W/m2
04:30 10.1 °C 9.8 °C 1011.1 hPa Calm   3.2 km/h 98% 0 mm 0 W/m2
04:40 10 °C 9.7 °C 1011.1 hPa WNW 1.6 km/h 4.8 km/h 98% 0 mm 0 W/m2
04:50 9.9 °C 9.6 °C 1011.1 hPa WSW 3.2 km/h 4.8 km/h 98% 0 mm 0 W/m2
05:00 9.6 °C 9.2 °C 1011.1 hPa WSW 1.6 km/h 4.8 km/h 97% 0 mm 0 W/m2
05:10 9.5 °C 9.2 °C 1011.1 hPa West 1.6 km/h 4.8 km/h 98% 0 mm 5 W/m2
05:20 9.4 °C 9.1 °C 1011.4 hPa NW 1.6 km/h 3.2 km/h 98% 0 mm 12 W/m2
05:30 9.3 °C 9.1 °C 1011.4 hPa Calm   3.2 km/h 98% 0 mm 22 W/m2
05:40 9.3 °C 9 °C 1011.4 hPa Calm   3.2 km/h 98% 0 mm 32 W/m2
05:50 9.3 °C 9 °C 1011.4 hPa Calm   1.6 km/h 98% 0 mm 44 W/m2
06:00 9.3 °C 9 °C 1011.4 hPa Calm   3.2 km/h 98% 0 mm 71 W/m2
06:10 9.3 °C 9 °C 1011.4 hPa Calm   3.2 km/h 98% 0 mm 64 W/m2
06:20 9.4 °C 9.3 °C 1011.4 hPa Calm   4.8 km/h 99% 0 mm 67 W/m2
06:30 9.5 °C 9.3 °C 1011.4 hPa Calm   3.2 km/h 99% 0 mm 135 W/m2
06:40 9.7 °C 9.6 °C 1011.4 hPa Calm   3.2 km/h 99% 0 mm 184 W/m2
06:50 9.9 °C 9.8 °C 1011.4 hPa Calm   3.2 km/h 99% 0 mm 240 W/m2
07:00 10.5 °C 10.3 °C 1011.4 hPa NE 1.6 km/h 9.7 km/h 99% 0 mm 284 W/m2
07:10 11.2 °C 11 °C 1011.4 hPa ENE 3.2 km/h 9.7 km/h 99% 0 mm 315 W/m2
07:20 11.7 °C 11.6 °C 1011.4 hPa NNE 4.8 km/h 11.3 km/h 99% 0 mm 346 W/m2
07:30 12.3 °C 12 °C 1011.4 hPa NE 3.2 km/h 9.7 km/h 98% 0 mm 377 W/m2
07:40 12.9 °C 12.3 °C 1011.4 hPa East 3.2 km/h 12.9 km/h 96% 0 mm 408 W/m2
07:50 13.5 °C 12.9 °C 1011.4 hPa NNE 3.2 km/h 9.7 km/h 96% 0 mm 397 W/m2
08:00 14.1 °C 13.1 °C 1011.4 hPa NE 4.8 km/h 11.3 km/h 94% 0 mm 336 W/m2
08:10 14.7 °C 13.2 °C 1011.4 hPa ESE 3.2 km/h 11.3 km/h 91% 0 mm 501 W/m2
08:20 15.3 °C 13.3 °C 1011.4 hPa SSW 3.2 km/h 11.3 km/h 88% 0 mm 246 W/m2
08:30 15.6 °C 13.1 °C 1011.4 hPa SW 4.8 km/h 11.3 km/h 85% 0 mm 212 W/m2
08:40 15.7 °C 13 °C 1011.4 hPa SW 4.8 km/h 14.5 km/h 84% 0 mm 426 W/m2
08:50 16 °C 13.1 °C 1011.4 hPa SSW 8 km/h 11.3 km/h 83% 0 mm 441 W/m2
09:00 16.7 °C 13.4 °C 1011.4 hPa SSW 3.2 km/h 11.3 km/h 81% 0 mm 645 W/m2
09:10 17.7 °C 13.8 °C 1011.4 hPa SW 4.8 km/h 9.7 km/h 78% 0 mm 671 W/m2
09:20 18.3 °C 14.2 °C 1011.4 hPa SSW 3.2 km/h 9.7 km/h 77% 0 mm 697 W/m2
09:30 19.1 °C 14.3 °C 1011.1 hPa SSE 1.6 km/h 9.7 km/h 74% 0 mm 670 W/m2
09:40 19.1 °C 14.2 °C 1011.1 hPa SSW 3.2 km/h 8 km/h 73% 0 mm 407 W/m2
09:50 19 °C 13.8 °C 1011.1 hPa SSW 3.2 km/h 8 km/h 72% 0 mm 372 W/m2
10:00 19 °C 14.1 °C 1011.1 hPa Calm   6.4 km/h 73% 0 mm 330 W/m2
10:10 19.1 °C 13.9 °C 1011.1 hPa SW 3.2 km/h 9.7 km/h 72% 0 mm 279 W/m2
10:20 19.1 °C 14.2 °C 1011.1 hPa SW 8 km/h 11.3 km/h 73% 0 mm 303 W/m2
10:30 19.1 °C 14.2 °C 1011.1 hPa WSW 9.7 km/h 12.9 km/h 73% 0 mm 248 W/m2
10:40 18.9 °C 14.2 °C 1011.4 hPa WSW 9.7 km/h 16.1 km/h 74% 0 mm 199 W/m2
10:50 18.5 °C 13.8 °C 1011.4 hPa SW 11.3 km/h 17.7 km/h 74% 0 mm 191 W/m2
11:00 17.9 °C 14.2 °C 1011.4 hPa SW 8 km/h 14.5 km/h 79% 0 mm 252 W/m2
11:10 17.8 °C 14.5 °C 1011.4 hPa SW 4.8 km/h 9.7 km/h 81% 0 mm 277 W/m2
11:20 17.8 °C 14.9 °C 1011.4 hPa SW 4.8 km/h 9.7 km/h 83% 0 mm 215 W/m2
11:30 17.8 °C 14.9 °C 1011.4 hPa SW 4.8 km/h 9.7 km/h 83% 0 mm 254 W/m2
11:40 17.9 °C 15.2 °C 1011.4 hPa SW 3.2 km/h 11.3 km/h 84% 0 mm 420 W/m2
11:50 18.4 °C 15.1 °C 1011.4 hPa SW 3.2 km/h 9.7 km/h 81% 0 mm 444 W/m2
12:00 18.8 °C 15.1 °C 1011.4 hPa West 4.8 km/h 11.3 km/h 79% 0 mm 574 W/m2
12:10 19 °C 14.3 °C 1011.1 hPa West 8 km/h 12.9 km/h 74% 0 mm 662 W/m2
12:20 19.1 °C 13.9 °C 1011.1 hPa WSW 4.8 km/h 12.9 km/h 72% 0 mm 437 W/m2
12:30 19.3 °C 14.1 °C 1011.1 hPa WNW 3.2 km/h 12.9 km/h 72% 0 mm 948 W/m2
12:40 19.6 °C 14.2 °C 1011.1 hPa West 1.6 km/h 12.9 km/h 71% 0 mm 317 W/m2
12:50 19.4 °C 13.8 °C 1011.1 hPa WNW 3.2 km/h 8 km/h 70% 0 mm 152 W/m2
13:00 19.3 °C 13.7 °C 1011.1 hPa West 3.2 km/h 8 km/h 70% 0 mm 80 W/m2
13:10 19.2 °C 13.6 °C 1011.1 hPa Calm   4.8 km/h 70% 0 mm 117 W/m2
13:20 19.1 °C 13.7 °C 1011.1 hPa WSW 1.6 km/h 9.7 km/h 71% 0 mm 220 W/m2
13:30 19.2 °C 13.6 °C 1011.1 hPa Calm   9.7 km/h 70% 0 mm 288 W/m2
13:40 19.2 °C 13.6 °C 1011.1 hPa WNW 9.7 km/h 20.9 km/h 70% 0 mm 425 W/m2
13:50 19.2 °C 13.8 °C 1011.1 hPa NW 8 km/h 19.3 km/h 71% 0 mm 366 W/m2
14:00 19.3 °C 14.1 °C 1011.1 hPa WNW 8 km/h 12.9 km/h 72% 0 mm 327 W/m2
14:10 19.4 °C 14.1 °C 1011.1 hPa WNW 11.3 km/h 16.1 km/h 71% 0 mm 864 W/m2
14:20 20.2 °C 14.3 °C 1011.1 hPa WNW 8 km/h 19.3 km/h 69% 0 mm 678 W/m2
14:30 20.5 °C 13.9 °C 1011.1 hPa WNW 9.7 km/h 19.3 km/h 66% 0 mm 367 W/m2
14:40 20.4 °C 12.9 °C 1011.1 hPa WNW 9.7 km/h 22.5 km/h 62% 0 mm 225 W/m2
14:50 20.1 °C 12.1 °C 1011.1 hPa West 14.5 km/h 25.7 km/h 60% 0 mm 280 W/m2
15:00 20.1 °C 12.8 °C 1011.1 hPa West 19.3 km/h 35.4 km/h 63% 0 mm 222 W/m2
15:10 19.8 °C 14.2 °C 1011.1 hPa NW 9.7 km/h 27.4 km/h 70% 0 mm 310 W/m2
15:20 19.6 °C 14.6 °C 1011.1 hPa NNE 9.7 km/h 19.3 km/h 73% 0 mm 270 W/m2
15:30 19.3 °C 14.7 °C 1011.4 hPa NNE 8 km/h 16.1 km/h 75% 0 mm 377 W/m2
15:40 19.3 °C 15.4 °C 1011.4 hPa NNE 8 km/h 19.3 km/h 78% 0 mm 595 W/m2
15:50 19.7 °C 15.6 °C 1011.1 hPa NNE 4.8 km/h 11.3 km/h 77% 0 mm 382 W/m2
16:00 19.9 °C 15.4 °C 1011.1 hPa NNE 4.8 km/h 11.3 km/h 75% 0 mm 512 W/m2
16:10 20.2 °C 15.2 °C 1011.1 hPa NE 3.2 km/h 17.7 km/h 73% 0 mm 590 W/m2
16:20 20.3 °C 15.1 °C 1010.7 hPa NE 8 km/h 19.3 km/h 72% 0 mm 561 W/m2
16:30 20.9 °C 15.7 °C 1010.7 hPa North 1.6 km/h 9.7 km/h 72% 0 mm 532 W/m2
16:40 21.4 °C 15.2 °C 1010.7 hPa NNE 4.8 km/h 12.9 km/h 68% 0 mm 229 W/m2
16:50 21.5 °C 15.1 °C 1010.7 hPa NE 9.7 km/h 12.9 km/h 67% 0 mm 471 W/m2
17:00 21.7 °C 15.3 °C 1010.7 hPa NNE 3.2 km/h 12.9 km/h 67% 0 mm 441 W/m2
17:10 21.9 °C 15.5 °C 1010.7 hPa North 3.2 km/h 11.3 km/h 67% 0 mm 388 W/m2
17:20 21.7 °C 15.3 °C 1010.7 hPa North 4.8 km/h 11.3 km/h 67% 0 mm 217 W/m2
17:30 21.6 °C 15.2 °C 1010.7 hPa North 4.8 km/h 12.9 km/h 67% 0 mm 110 W/m2
17:40 21 °C 15.1 °C 1010.7 hPa North 4.8 km/h 14.5 km/h 69% 0 mm 81 W/m2
17:50 20.4 °C 14.8 °C 1010.7 hPa NNE 8 km/h 17.7 km/h 70% 0 mm 188 W/m2
18:00 20.2 °C 15 °C 1010.7 hPa North 8 km/h 16.1 km/h 72% 0 mm 234 W/m2
18:10 20.1 °C 15.1 °C 1010.7 hPa North 9.7 km/h 12.9 km/h 73% 0 mm 181 W/m2
18:20 20 °C 14.8 °C 1010.7 hPa North 4.8 km/h 12.9 km/h 72% 0 mm 167 W/m2
18:30 19.9 °C 15.1 °C 1010.7 hPa North 3.2 km/h 11.3 km/h 74% 0 mm 119 W/m2
18:40 19.7 °C 14.7 °C 1010.7 hPa North 3.2 km/h 11.3 km/h 73% 0 mm 119 W/m2
18:50 19.7 °C 14.7 °C 1010.7 hPa North 3.2 km/h 11.3 km/h 73% 0 mm 102 W/m2
19:00 19.6 °C 14.6 °C 1010.7 hPa North 1.6 km/h 8 km/h 73% 0 mm 86 W/m2
19:10 19.4 °C 14.4 °C 1011.1 hPa Calm   8 km/h 73% 0 mm 44 W/m2
19:20 19.1 °C 14.6 °C 1011.1 hPa North 1.6 km/h 1.6 km/h 75% 0 mm 27 W/m2
19:30 18.8 °C 14.3 °C 1011.1 hPa Calm   1.6 km/h 75% 0 mm 16 W/m2
19:40 18.3 °C 13.8 °C 1011.1 hPa North 1.6 km/h 3.2 km/h 75% 0 mm 10 W/m2
19:50 17.9 °C 14 °C 1011.1 hPa SSE 1.6 km/h 4.8 km/h 78% 0 mm 4 W/m2
20:00 17.5 °C 13.8 °C 1011.1 hPa SSW 1.6 km/h 6.4 km/h 79% 0 mm 0 W/m2
20:10 17.2 °C 13.7 °C 1011.1 hPa SSW 1.6 km/h 3.2 km/h 80% 0 mm 0 W/m2
20:20 16.8 °C 13.6 °C 1011.4 hPa South 1.6 km/h 4.8 km/h 81% 0 mm 0 W/m2
20:30 16.4 °C 13.5 °C 1011.4 hPa WSW 3.2 km/h 4.8 km/h 83% 0 mm 0 W/m2
20:40 16 °C 13.5 °C 1011.4 hPa WNW 3.2 km/h 8 km/h 85% 0 mm 0 W/m2
20:50 15.7 °C 13.4 °C 1011.4 hPa West 1.6 km/h 8 km/h 86% 0 mm 0 W/m2
21:00 15.5 °C 13.2 °C 1011.7 hPa WSW 1.6 km/h 4.8 km/h 86% 0 mm 0 W/m2
21:10 15.3 °C 13.3 °C 1011.7 hPa SW 1.6 km/h 3.2 km/h 88% 0 mm 0 W/m2
21:20 15 °C 13 °C 1011.7 hPa WSW 3.2 km/h 4.8 km/h 88% 0 mm 0 W/m2
21:30 14.8 °C 13 °C 1011.7 hPa WNW 3.2 km/h 3.2 km/h 89% 0 mm 0 W/m2
21:40 14.7 °C 12.9 °C 1011.7 hPa Calm   3.2 km/h 89% 0 mm 0 W/m2
21:50 14.6 °C 13 °C 1011.7 hPa WSW 1.6 km/h 3.2 km/h 90% 0 mm 0 W/m2
22:00 14.4 °C 12.8 °C 1012.1 hPa NW 1.6 km/h 3.2 km/h 90% 0 mm 0 W/m2
22:10 14.4 °C 12.8 °C 1011.7 hPa NNE 3.2 km/h 4.8 km/h 90% 0 mm 0 W/m2
22:20 14.4 °C 12.8 °C 1011.7 hPa Calm   3.2 km/h 90% 0 mm 0 W/m2
22:30 14.4 °C 12.8 °C 1011.7 hPa SSE 1.6 km/h 3.2 km/h 90% 0 mm 0 W/m2
22:40 14.3 °C 12.7 °C 1011.7 hPa East 3.2 km/h 8 km/h 90% 0 mm 0 W/m2
22:50 14.3 °C 12.7 °C 1011.7 hPa ESE 4.8 km/h 12.9 km/h 90% 0 mm 0 W/m2
23:00 14.4 °C 12.8 °C 1011.7 hPa ESE 4.8 km/h 14.5 km/h 90% 0 mm 0 W/m2
23:10 14.3 °C 12.7 °C 1011.7 hPa SE 1.6 km/h 8 km/h 90% 0 mm 0 W/m2
23:20 14.2 °C 12.6 °C 1011.7 hPa Calm   3.2 km/h 90% 0 mm 0 W/m2
23:30 14.2 °C 12.7 °C 1011.7 hPa NW 1.6 km/h 3.2 km/h 91% 0 mm 0 W/m2
23:40 14.1 °C 12.7 °C 1011.7 hPa West 1.6 km/h 3.2 km/h 91% 0 mm 0 W/m2
23:50 14 °C 12.6 °C 1011.7 hPa Calm   3.2 km/h 91% 0 mm 0 W/m2
Knjazevac, Serbia
Compliments of Weather Underground - 2 mb